sensor_id;sensor_type;location;lat;lon;timestamp;temperature;humidity
80132;SHT30;69442;51.442;10.564;2023-11-22T00:01:02;3.25;67.42
80132;SHT30;69442;51.442;10.564;2023-11-22T00:03:28;3.18;66.57
80132;SHT30;69442;51.442;10.564;2023-11-22T00:05:54;3.25;68.54
80132;SHT30;69442;51.442;10.564;2023-11-22T00:08:19;3.32;68.49
80132;SHT30;69442;51.442;10.564;2023-11-22T00:10:44;3.31;67.62
80132;SHT30;69442;51.442;10.564;2023-11-22T00:13:10;3.34;68.81
80132;SHT30;69442;51.442;10.564;2023-11-22T00:15:37;3.34;66.91
80132;SHT30;69442;51.442;10.564;2023-11-22T00:18:02;3.39;68.01
80132;SHT30;69442;51.442;10.564;2023-11-22T00:20:29;3.32;67.52
80132;SHT30;69442;51.442;10.564;2023-11-22T00:22:55;3.17;67.60
80132;SHT30;69442;51.442;10.564;2023-11-22T00:25:20;3.24;68.06
80132;SHT30;69442;51.442;10.564;2023-11-22T00:27:46;3.28;68.47
80132;SHT30;69442;51.442;10.564;2023-11-22T00:30:12;3.36;70.97
80132;SHT30;69442;51.442;10.564;2023-11-22T00:32:38;3.38;70.41
80132;SHT30;69442;51.442;10.564;2023-11-22T00:35:05;3.42;70.94
80132;SHT30;69442;51.442;10.564;2023-11-22T00:37:31;3.44;70.73
80132;SHT30;69442;51.442;10.564;2023-11-22T00:39:56;3.42;69.68
80132;SHT30;69442;51.442;10.564;2023-11-22T00:42:22;3.48;71.15
80132;SHT30;69442;51.442;10.564;2023-11-22T00:44:47;3.39;70.34
80132;SHT30;69442;51.442;10.564;2023-11-22T00:47:13;3.48;72.03
80132;SHT30;69442;51.442;10.564;2023-11-22T00:49:38;3.44;71.10
80132;SHT30;69442;51.442;10.564;2023-11-22T00:52:04;3.42;71.24
80132;SHT30;69442;51.442;10.564;2023-11-22T00:54:29;3.42;70.83
80132;SHT30;69442;51.442;10.564;2023-11-22T00:56:55;3.39;70.57
80132;SHT30;69442;51.442;10.564;2023-11-22T00:59:20;3.39;70.42
80132;SHT30;69442;51.442;10.564;2023-11-22T01:01:45;3.41;70.92
80132;SHT30;69442;51.442;10.564;2023-11-22T01:04:11;3.39;72.05
80132;SHT30;69442;51.442;10.564;2023-11-22T01:06:36;3.50;74.36
80132;SHT30;69442;51.442;10.564;2023-11-22T01:09:02;3.46;72.51
80132;SHT30;69442;51.442;10.564;2023-11-22T01:11:28;3.50;73.60
80132;SHT30;69442;51.442;10.564;2023-11-22T01:13:53;3.50;73.32
80132;SHT30;69442;51.442;10.564;2023-11-22T01:16:19;3.45;69.56
80132;SHT30;69442;51.442;10.564;2023-11-22T01:18:44;3.21;67.71
80132;SHT30;69442;51.442;10.564;2023-11-22T01:21:11;3.30;69.27
80132;SHT30;69442;51.442;10.564;2023-11-22T01:23:37;3.21;68.79
80132;SHT30;69442;51.442;10.564;2023-11-22T01:26:02;3.14;69.98
80132;SHT30;69442;51.442;10.564;2023-11-22T01:28:28;3.25;72.22
80132;SHT30;69442;51.442;10.564;2023-11-22T01:30:54;3.23;71.02
80132;SHT30;69442;51.442;10.564;2023-11-22T01:33:20;3.16;69.64
80132;SHT30;69442;51.442;10.564;2023-11-22T01:35:46;3.20;71.62
80132;SHT30;69442;51.442;10.564;2023-11-22T01:38:11;3.23;71.99
80132;SHT30;69442;51.442;10.564;2023-11-22T01:40:43;3.24;71.27
80132;SHT30;69442;51.442;10.564;2023-11-22T01:43:13;3.20;71.87
80132;SHT30;69442;51.442;10.564;2023-11-22T01:45:38;3.14;69.32
80132;SHT30;69442;51.442;10.564;2023-11-22T01:48:04;3.04;69.10
80132;SHT30;69442;51.442;10.564;2023-11-22T01:50:30;3.10;72.94
80132;SHT30;69442;51.442;10.564;2023-11-22T01:52:55;3.11;72.57
80132;SHT30;69442;51.442;10.564;2023-11-22T01:55:21;3.16;73.57
80132;SHT30;69442;51.442;10.564;2023-11-22T01:57:46;3.24;73.89
80132;SHT30;69442;51.442;10.564;2023-11-22T02:00:12;2.93;69.43
80132;SHT30;69442;51.442;10.564;2023-11-22T02:02:40;2.86;69.76
80132;SHT30;69442;51.442;10.564;2023-11-22T02:05:06;2.85;70.16
80132;SHT30;69442;51.442;10.564;2023-11-22T02:07:31;2.83;70.25
80132;SHT30;69442;51.442;10.564;2023-11-22T02:09:58;2.71;70.36
80132;SHT30;69442;51.442;10.564;2023-11-22T02:12:23;2.72;70.70
80132;SHT30;69442;51.442;10.564;2023-11-22T02:14:49;2.75;70.94
80132;SHT30;69442;51.442;10.564;2023-11-22T02:17:15;2.85;73.47
80132;SHT30;69442;51.442;10.564;2023-11-22T02:19:42;2.83;72.52
80132;SHT30;69442;51.442;10.564;2023-11-22T02:22:07;2.86;72.79
80132;SHT30;69442;51.442;10.564;2023-11-22T02:24:33;2.71;70.63
80132;SHT30;69442;51.442;10.564;2023-11-22T02:27:00;2.68;70.59
80132;SHT30;69442;51.442;10.564;2023-11-22T02:29:25;2.61;70.76
80132;SHT30;69442;51.442;10.564;2023-11-22T02:31:51;2.55;70.32
80132;SHT30;69442;51.442;10.564;2023-11-22T02:34:16;2.55;70.16
80132;SHT30;69442;51.442;10.564;2023-11-22T02:36:42;2.49;70.05
80132;SHT30;69442;51.442;10.564;2023-11-22T02:39:09;2.44;70.13
80132;SHT30;69442;51.442;10.564;2023-11-22T02:41:34;2.40;70.33
80132;SHT30;69442;51.442;10.564;2023-11-22T02:44:00;2.40;71.25
80132;SHT30;69442;51.442;10.564;2023-11-22T02:46:26;2.21;69.53
80132;SHT30;69442;51.442;10.564;2023-11-22T02:48:51;2.14;69.46
80132;SHT30;69442;51.442;10.564;2023-11-22T02:51:19;2.05;69.79
80132;SHT30;69442;51.442;10.564;2023-11-22T02:53:44;2.03;69.61
80132;SHT30;69442;51.442;10.564;2023-11-22T02:56:11;2.02;69.34
80132;SHT30;69442;51.442;10.564;2023-11-22T02:58:37;2.02;69.41
80132;SHT30;69442;51.442;10.564;2023-11-22T03:01:02;2.05;70.30
80132;SHT30;69442;51.442;10.564;2023-11-22T03:03:28;2.00;69.57
80132;SHT30;69442;51.442;10.564;2023-11-22T03:05:54;1.87;69.10
80132;SHT30;69442;51.442;10.564;2023-11-22T03:08:19;1.98;69.62
80132;SHT30;69442;51.442;10.564;2023-11-22T03:10:45;1.98;69.27
80132;SHT30;69442;51.442;10.564;2023-11-22T03:13:11;1.99;70.18
80132;SHT30;69442;51.442;10.564;2023-11-22T03:15:36;2.00;69.39
80132;SHT30;69442;51.442;10.564;2023-11-22T03:18:02;1.96;69.78
80132;SHT30;69442;51.442;10.564;2023-11-22T03:20:29;2.06;71.26
80132;SHT30;69442;51.442;10.564;2023-11-22T03:22:56;2.03;70.38
80132;SHT30;69442;51.442;10.564;2023-11-22T03:25:21;2.07;71.07
80132;SHT30;69442;51.442;10.564;2023-11-22T03:27:47;2.02;70.80
80132;SHT30;69442;51.442;10.564;2023-11-22T03:30:12;2.05;71.37
80132;SHT30;69442;51.442;10.564;2023-11-22T03:32:40;2.09;72.53
80132;SHT30;69442;51.442;10.564;2023-11-22T03:35:06;2.06;70.77
80132;SHT30;69442;51.442;10.564;2023-11-22T03:37:33;2.06;70.84
80132;SHT30;69442;51.442;10.564;2023-11-22T03:39:58;2.00;69.61
80132;SHT30;69442;51.442;10.564;2023-11-22T03:42:24;1.96;70.80
80132;SHT30;69442;51.442;10.564;2023-11-22T03:44:49;1.93;71.88
80132;SHT30;69442;51.442;10.564;2023-11-22T03:47:15;1.95;71.70
80132;SHT30;69442;51.442;10.564;2023-11-22T03:49:41;1.93;71.83
80132;SHT30;69442;51.442;10.564;2023-11-22T03:52:06;1.93;71.87
80132;SHT30;69442;51.442;10.564;2023-11-22T03:54:33;1.92;72.03
80132;SHT30;69442;51.442;10.564;2023-11-22T03:56:59;1.87;70.71
80132;SHT30;69442;51.442;10.564;2023-11-22T03:59:24;1.86;70.73
80132;SHT30;69442;51.442;10.564;2023-11-22T04:01:50;1.92;73.13
80132;SHT30;69442;51.442;10.564;2023-11-22T04:04:16;1.96;73.57
80132;SHT30;69442;51.442;10.564;2023-11-22T04:06:41;1.96;74.07
80132;SHT30;69442;51.442;10.564;2023-11-22T04:09:07;1.92;72.23
80132;SHT30;69442;51.442;10.564;2023-11-22T04:11:33;1.91;73.34
80132;SHT30;69442;51.442;10.564;2023-11-22T04:14:00;1.89;71.79
80132;SHT30;69442;51.442;10.564;2023-11-22T04:16:25;1.89;72.73
80132;SHT30;69442;51.442;10.564;2023-11-22T04:18:50;1.91;73.52
80132;SHT30;69442;51.442;10.564;2023-11-22T04:21:16;1.91;73.60
80132;SHT30;69442;51.442;10.564;2023-11-22T04:23:41;1.83;72.02
80132;SHT30;69442;51.442;10.564;2023-11-22T04:26:07;1.81;71.20
80132;SHT30;69442;51.442;10.564;2023-11-22T04:28:33;1.79;71.70
80132;SHT30;69442;51.442;10.564;2023-11-22T04:30:59;1.78;72.09
80132;SHT30;69442;51.442;10.564;2023-11-22T04:33:25;1.76;72.19
80132;SHT30;69442;51.442;10.564;2023-11-22T04:35:53;1.75;71.34
80132;SHT30;69442;51.442;10.564;2023-11-22T04:38:18;1.72;70.00
80132;SHT30;69442;51.442;10.564;2023-11-22T04:40:44;1.69;71.91
80132;SHT30;69442;51.442;10.564;2023-11-22T04:43:10;1.68;71.43
80132;SHT30;69442;51.442;10.564;2023-11-22T04:45:36;1.72;71.24
80132;SHT30;69442;51.442;10.564;2023-11-22T04:48:02;1.72;71.81
80132;SHT30;69442;51.442;10.564;2023-11-22T04:50:28;1.75;72.31
80132;SHT30;69442;51.442;10.564;2023-11-22T04:52:53;1.74;71.31
80132;SHT30;69442;51.442;10.564;2023-11-22T04:55:19;1.72;71.80
80132;SHT30;69442;51.442;10.564;2023-11-22T04:57:47;1.72;72.17
80132;SHT30;69442;51.442;10.564;2023-11-22T05:00:13;1.69;71.88
80132;SHT30;69442;51.442;10.564;2023-11-22T05:02:38;1.71;72.37
80132;SHT30;69442;51.442;10.564;2023-11-22T05:05:06;1.69;72.37
80132;SHT30;69442;51.442;10.564;2023-11-22T05:07:31;1.68;72.66
80132;SHT30;69442;51.442;10.564;2023-11-22T05:09:56;1.66;72.86
80132;SHT30;69442;51.442;10.564;2023-11-22T05:12:22;1.64;72.94
80132;SHT30;69442;51.442;10.564;2023-11-22T05:14:48;1.66;73.06
80132;SHT30;69442;51.442;10.564;2023-11-22T05:17:13;1.65;73.24
80132;SHT30;69442;51.442;10.564;2023-11-22T05:19:39;1.65;72.85
80132;SHT30;69442;51.442;10.564;2023-11-22T05:22:04;1.66;72.35
80132;SHT30;69442;51.442;10.564;2023-11-22T05:24:30;1.71;72.89
80132;SHT30;69442;51.442;10.564;2023-11-22T05:26:56;1.68;72.59
80132;SHT30;69442;51.442;10.564;2023-11-22T05:29:21;1.66;72.13
80132;SHT30;69442;51.442;10.564;2023-11-22T05:31:47;1.69;72.61
80132;SHT30;69442;51.442;10.564;2023-11-22T05:34:12;1.72;73.76
80132;SHT30;69442;51.442;10.564;2023-11-22T05:36:38;1.65;72.76
80132;SHT30;69442;51.442;10.564;2023-11-22T05:39:03;1.66;72.51
80132;SHT30;69442;51.442;10.564;2023-11-22T05:41:29;1.65;72.69
80132;SHT30;69442;51.442;10.564;2023-11-22T05:43:54;1.69;73.63
80132;SHT30;69442;51.442;10.564;2023-11-22T05:46:21;1.68;71.94
80132;SHT30;69442;51.442;10.564;2023-11-22T05:48:56;1.69;72.75
80132;SHT30;69442;51.442;10.564;2023-11-22T05:51:21;1.66;71.86
80132;SHT30;69442;51.442;10.564;2023-11-22T05:53:47;1.66;72.05
80132;SHT30;69442;51.442;10.564;2023-11-22T05:56:13;1.66;72.36
80132;SHT30;69442;51.442;10.564;2023-11-22T05:58:38;1.66;72.24
80132;SHT30;69442;51.442;10.564;2023-11-22T06:01:05;1.66;71.43
80132;SHT30;69442;51.442;10.564;2023-11-22T06:03:31;1.55;70.94
80132;SHT30;69442;51.442;10.564;2023-11-22T06:05:56;1.57;71.23
80132;SHT30;69442;51.442;10.564;2023-11-22T06:08:22;1.58;71.73
80132;SHT30;69442;51.442;10.564;2023-11-22T06:10:48;1.59;72.18
80132;SHT30;69442;51.442;10.564;2023-11-22T06:13:13;1.65;71.13
80132;SHT30;69442;51.442;10.564;2023-11-22T06:15:39;1.59;71.29
80132;SHT30;69442;51.442;10.564;2023-11-22T06:18:05;1.59;71.22
80132;SHT30;69442;51.442;10.564;2023-11-22T06:20:30;1.44;70.90
80132;SHT30;69442;51.442;10.564;2023-11-22T06:22:56;1.34;71.37
80132;SHT30;69442;51.442;10.564;2023-11-22T06:25:21;1.29;70.19
80132;SHT30;69442;51.442;10.564;2023-11-22T06:27:47;1.23;70.12
80132;SHT30;69442;51.442;10.564;2023-11-22T06:30:12;1.20;70.34
80132;SHT30;69442;51.442;10.564;2023-11-22T06:32:39;1.13;69.96
80132;SHT30;69442;51.442;10.564;2023-11-22T06:35:08;1.12;69.95
80132;SHT30;69442;51.442;10.564;2023-11-22T06:37:34;1.20;71.01
80132;SHT30;69442;51.442;10.564;2023-11-22T06:39:59;1.31;69.92
80132;SHT30;69442;51.442;10.564;2023-11-22T06:42:25;1.26;70.35
80132;SHT30;69442;51.442;10.564;2023-11-22T06:44:52;1.22;70.68
80132;SHT30;69442;51.442;10.564;2023-11-22T06:47:18;1.17;70.30
80132;SHT30;69442;51.442;10.564;2023-11-22T06:49:44;1.15;70.23
80132;SHT30;69442;51.442;10.564;2023-11-22T06:52:09;1.09;70.29
80132;SHT30;69442;51.442;10.564;2023-11-22T06:54:35;1.09;70.25
80132;SHT30;69442;51.442;10.564;2023-11-22T06:57:02;1.09;70.08
80132;SHT30;69442;51.442;10.564;2023-11-22T06:59:28;1.09;70.15
80132;SHT30;69442;51.442;10.564;2023-11-22T07:01:53;1.17;69.97
80132;SHT30;69442;51.442;10.564;2023-11-22T07:04:19;1.17;70.13
80132;SHT30;69442;51.442;10.564;2023-11-22T07:06:44;1.17;70.47
80132;SHT30;69442;51.442;10.564;2023-11-22T07:09:10;1.16;70.56
80132;SHT30;69442;51.442;10.564;2023-11-22T07:11:36;1.17;70.69
80132;SHT30;69442;51.442;10.564;2023-11-22T07:14:03;1.10;70.71
80132;SHT30;69442;51.442;10.564;2023-11-22T07:16:30;1.02;70.96
80132;SHT30;69442;51.442;10.564;2023-11-22T07:18:56;1.03;71.01
80132;SHT30;69442;51.442;10.564;2023-11-22T07:21:22;1.04;71.24
80132;SHT30;69442;51.442;10.564;2023-11-22T07:23:47;0.99;71.33
80132;SHT30;69442;51.442;10.564;2023-11-22T07:26:13;0.99;71.40
80132;SHT30;69442;51.442;10.564;2023-11-22T07:28:42;1.17;71.55
80132;SHT30;69442;51.442;10.564;2023-11-22T07:31:08;1.20;70.97
80132;SHT30;69442;51.442;10.564;2023-11-22T07:33:34;1.16;70.84
80132;SHT30;69442;51.442;10.564;2023-11-22T07:36:00;1.20;70.74
80132;SHT30;69442;51.442;10.564;2023-11-22T07:38:25;1.12;70.95
80132;SHT30;69442;51.442;10.564;2023-11-22T07:40:51;1.09;71.07
80132;SHT30;69442;51.442;10.564;2023-11-22T07:43:17;1.12;71.09
80132;SHT30;69442;51.442;10.564;2023-11-22T07:45:42;1.12;70.95
80132;SHT30;69442;51.442;10.564;2023-11-22T07:48:10;1.16;71.08
80132;SHT30;69442;51.442;10.564;2023-11-22T07:50:37;1.20;71.50
80132;SHT30;69442;51.442;10.564;2023-11-22T07:53:03;1.19;70.87
80132;SHT30;69442;51.442;10.564;2023-11-22T07:55:30;1.23;71.11
80132;SHT30;69442;51.442;10.564;2023-11-22T07:57:55;1.29;71.70
80132;SHT30;69442;51.442;10.564;2023-11-22T08:00:21;1.31;71.31
80132;SHT30;69442;51.442;10.564;2023-11-22T08:02:47;1.34;71.95
80132;SHT30;69442;51.442;10.564;2023-11-22T08:05:13;1.30;71.34
80132;SHT30;69442;51.442;10.564;2023-11-22T08:07:41;1.19;70.89
80132;SHT30;69442;51.442;10.564;2023-11-22T08:10:10;1.15;71.21
80132;SHT30;69442;51.442;10.564;2023-11-22T08:12:44;1.24;71.33
80132;SHT30;69442;51.442;10.564;2023-11-22T08:15:10;1.19;71.32
80132;SHT30;69442;51.442;10.564;2023-11-22T08:17:41;1.00;71.77
80132;SHT30;69442;51.442;10.564;2023-11-22T08:20:07;1.06;71.78
80132;SHT30;69442;51.442;10.564;2023-11-22T08:22:42;1.03;71.80
80132;SHT30;69442;51.442;10.564;2023-11-22T08:25:08;1.07;71.72
80132;SHT30;69442;51.442;10.564;2023-11-22T08:27:34;0.97;71.91
80132;SHT30;69442;51.442;10.564;2023-11-22T08:29:59;0.99;71.75
80132;SHT30;69442;51.442;10.564;2023-11-22T08:32:30;1.06;71.72
80132;SHT30;69442;51.442;10.564;2023-11-22T08:34:56;1.06;72.15
80132;SHT30;69442;51.442;10.564;2023-11-22T08:37:22;1.09;71.74
80132;SHT30;69442;51.442;10.564;2023-11-22T08:39:47;1.19;71.64
80132;SHT30;69442;51.442;10.564;2023-11-22T08:42:14;1.20;71.65
80132;SHT30;69442;51.442;10.564;2023-11-22T08:44:39;1.19;71.27
80132;SHT30;69442;51.442;10.564;2023-11-22T08:47:05;1.16;71.57
80132;SHT30;69442;51.442;10.564;2023-11-22T08:49:30;1.09;71.58
80132;SHT30;69442;51.442;10.564;2023-11-22T08:51:56;1.10;72.08
80132;SHT30;69442;51.442;10.564;2023-11-22T08:54:22;1.15;71.77
80132;SHT30;69442;51.442;10.564;2023-11-22T08:56:47;1.19;71.69
80132;SHT30;69442;51.442;10.564;2023-11-22T08:59:13;1.27;71.54
80132;SHT30;69442;51.442;10.564;2023-11-22T09:01:39;1.29;71.64
80132;SHT30;69442;51.442;10.564;2023-11-22T09:04:05;1.29;71.56
80132;SHT30;69442;51.442;10.564;2023-11-22T09:06:33;1.24;71.68
80132;SHT30;69442;51.442;10.564;2023-11-22T09:09:00;1.27;71.45
80132;SHT30;69442;51.442;10.564;2023-11-22T09:11:26;1.37;71.42
80132;SHT30;69442;51.442;10.564;2023-11-22T09:13:51;1.46;71.57
80132;SHT30;69442;51.442;10.564;2023-11-22T09:16:18;1.48;71.12
80132;SHT30;69442;51.442;10.564;2023-11-22T09:18:44;1.54;71.12
80132;SHT30;69442;51.442;10.564;2023-11-22T09:21:10;1.50;71.05
80132;SHT30;69442;51.442;10.564;2023-11-22T09:23:35;1.51;70.98
80132;SHT30;69442;51.442;10.564;2023-11-22T09:26:04;1.61;71.40
80132;SHT30;69442;51.442;10.564;2023-11-22T09:28:30;1.57;71.16
80132;SHT30;69442;51.442;10.564;2023-11-22T09:30:56;1.54;71.06
80132;SHT30;69442;51.442;10.564;2023-11-22T09:33:31;1.47;70.83
80132;SHT30;69442;51.442;10.564;2023-11-22T09:35:56;1.43;70.64
80132;SHT30;69442;51.442;10.564;2023-11-22T09:38:23;1.40;70.53
80132;SHT30;69442;51.442;10.564;2023-11-22T09:40:49;1.40;70.62
80132;SHT30;69442;51.442;10.564;2023-11-22T09:43:15;1.43;70.73
80132;SHT30;69442;51.442;10.564;2023-11-22T09:45:46;1.41;70.71
80132;SHT30;69442;51.442;10.564;2023-11-22T09:48:15;1.44;70.53
80132;SHT30;69442;51.442;10.564;2023-11-22T09:53:52;1.64;70.46
80132;SHT30;69442;51.442;10.564;2023-11-22T09:56:19;1.61;70.04
80132;SHT30;69442;51.442;10.564;2023-11-22T09:58:45;1.52;70.01
80132;SHT30;69442;51.442;10.564;2023-11-22T10:01:14;1.59;70.53
80132;SHT30;69442;51.442;10.564;2023-11-22T10:03:41;1.59;70.91
80132;SHT30;69442;51.442;10.564;2023-11-22T10:06:07;1.57;71.27
80132;SHT30;69442;51.442;10.564;2023-11-22T10:08:33;1.48;70.77
80132;SHT30;69442;51.442;10.564;2023-11-22T10:10:59;1.59;70.36
80132;SHT30;69442;51.442;10.564;2023-11-22T10:13:25;1.72;69.45
80132;SHT30;69442;51.442;10.564;2023-11-22T10:15:52;1.79;70.81
80132;SHT30;69442;51.442;10.564;2023-11-22T10:18:19;1.86;69.61
80132;SHT30;69442;51.442;10.564;2023-11-22T10:20:47;1.89;69.38
80132;SHT30;69442;51.442;10.564;2023-11-22T10:23:14;1.95;69.93
80132;SHT30;69442;51.442;10.564;2023-11-22T10:25:50;2.00;69.29
80132;SHT30;69442;51.442;10.564;2023-11-22T10:28:20;2.03;68.78
80132;SHT30;69442;51.442;10.564;2023-11-22T10:30:46;2.03;68.11
80132;SHT30;69442;51.442;10.564;2023-11-22T10:33:12;2.07;68.50
80132;SHT30;69442;51.442;10.564;2023-11-22T10:35:48;2.10;68.25
80132;SHT30;69442;51.442;10.564;2023-11-22T10:38:14;2.07;67.35
80132;SHT30;69442;51.442;10.564;2023-11-22T10:40:40;2.05;66.15
80132;SHT30;69442;51.442;10.564;2023-11-22T10:43:07;2.09;66.71
80132;SHT30;69442;51.442;10.564;2023-11-22T10:45:33;2.09;66.41
80132;SHT30;69442;51.442;10.564;2023-11-22T10:48:00;2.10;66.82
80132;SHT30;69442;51.442;10.564;2023-11-22T10:50:26;2.11;67.49
80132;SHT30;69442;51.442;10.564;2023-11-22T10:52:56;2.17;67.70
80132;SHT30;69442;51.442;10.564;2023-11-22T10:55:26;1.99;66.61
80132;SHT30;69442;51.442;10.564;2023-11-22T10:57:56;1.95;66.56
80132;SHT30;69442;51.442;10.564;2023-11-22T11:00:22;2.02;66.72
80132;SHT30;69442;51.442;10.564;2023-11-22T11:02:51;2.16;67.24
80132;SHT30;69442;51.442;10.564;2023-11-22T11:05:21;2.21;69.21
80132;SHT30;69442;51.442;10.564;2023-11-22T11:08:19;2.28;67.79
80132;SHT30;69442;51.442;10.564;2023-11-22T11:10:48;2.34;69.91
80132;SHT30;69442;51.442;10.564;2023-11-22T11:13:14;2.38;67.08
80132;SHT30;69442;51.442;10.564;2023-11-22T11:15:42;2.40;66.21
80132;SHT30;69442;51.442;10.564;2023-11-22T11:18:15;2.44;67.65
80132;SHT30;69442;51.442;10.564;2023-11-22T11:20:50;2.44;66.44
80132;SHT30;69442;51.442;10.564;2023-11-22T11:23:36;2.41;66.64
80132;SHT30;69442;51.442;10.564;2023-11-22T11:26:17;2.33;66.27
80132;SHT30;69442;51.442;10.564;2023-11-22T11:28:45;2.26;66.29
80132;SHT30;69442;51.442;10.564;2023-11-22T11:31:13;2.20;66.15
80132;SHT30;69442;51.442;10.564;2023-11-22T11:36:24;2.34;66.55
80132;SHT30;69442;51.442;10.564;2023-11-22T11:38:51;2.34;66.01
80132;SHT30;69442;51.442;10.564;2023-11-22T11:41:17;2.37;66.18
80132;SHT30;69442;51.442;10.564;2023-11-22T11:43:44;2.48;66.11
80132;SHT30;69442;51.442;10.564;2023-11-22T11:46:11;2.51;65.62
80132;SHT30;69442;51.442;10.564;2023-11-22T11:48:36;2.58;65.81
80132;SHT30;69442;51.442;10.564;2023-11-22T11:51:02;2.52;65.43
80132;SHT30;69442;51.442;10.564;2023-11-22T11:53:27;2.54;65.48
80132;SHT30;69442;51.442;10.564;2023-11-22T11:55:57;2.66;66.03
80132;SHT30;69442;51.442;10.564;2023-11-22T11:58:22;2.72;65.65
80132;SHT30;69442;51.442;10.564;2023-11-22T12:00:51;2.80;66.11
80132;SHT30;69442;51.442;10.564;2023-11-22T12:03:18;2.86;68.02
80132;SHT30;69442;51.442;10.564;2023-11-22T12:05:46;2.96;67.70
80132;SHT30;69442;51.442;10.564;2023-11-22T12:08:13;2.97;69.89
80132;SHT30;69442;51.442;10.564;2023-11-22T12:10:41;2.97;65.69
80132;SHT30;69442;51.442;10.564;2023-11-22T12:13:07;2.97;65.67
80132;SHT30;69442;51.442;10.564;2023-11-22T12:15:34;3.03;68.50
80132;SHT30;69442;51.442;10.564;2023-11-22T12:17:59;3.07;69.87
80132;SHT30;69442;51.442;10.564;2023-11-22T12:20:26;3.11;67.99
80132;SHT30;69442;51.442;10.564;2023-11-22T12:22:57;3.01;65.06
80132;SHT30;69442;51.442;10.564;2023-11-22T12:25:23;3.07;65.73
80132;SHT30;69442;51.442;10.564;2023-11-22T12:27:54;3.14;66.58
80132;SHT30;69442;51.442;10.564;2023-11-22T12:30:33;3.00;65.05
80132;SHT30;69442;51.442;10.564;2023-11-22T12:33:05;3.03;66.06
80132;SHT30;69442;51.442;10.564;2023-11-22T12:35:32;3.08;65.82
80132;SHT30;69442;51.442;10.564;2023-11-22T12:38:03;3.11;65.58
80132;SHT30;69442;51.442;10.564;2023-11-22T12:40:31;3.16;65.82
80132;SHT30;69442;51.442;10.564;2023-11-22T12:42:57;3.16;66.18
80132;SHT30;69442;51.442;10.564;2023-11-22T12:45:24;3.14;65.87
80132;SHT30;69442;51.442;10.564;2023-11-22T12:47:52;3.20;66.96
80132;SHT30;69442;51.442;10.564;2023-11-22T12:50:30;3.17;64.79
80132;SHT30;69442;51.442;10.564;2023-11-22T12:52:59;3.20;64.76
80132;SHT30;69442;51.442;10.564;2023-11-22T12:55:25;3.20;65.06
80132;SHT30;69442;51.442;10.564;2023-11-22T12:58:00;3.24;66.07
80132;SHT30;69442;51.442;10.564;2023-11-22T13:00:27;3.25;66.18
80132;SHT30;69442;51.442;10.564;2023-11-22T13:02:57;3.20;64.92
80132;SHT30;69442;51.442;10.564;2023-11-22T13:05:23;3.21;64.51
80132;SHT30;69442;51.442;10.564;2023-11-22T13:07:48;3.16;64.68
80132;SHT30;69442;51.442;10.564;2023-11-22T13:10:14;3.20;64.79
80132;SHT30;69442;51.442;10.564;2023-11-22T13:12:44;3.25;66.43
80132;SHT30;69442;51.442;10.564;2023-11-22T13:15:14;3.32;67.23
80132;SHT30;69442;51.442;10.564;2023-11-22T13:17:39;3.30;64.49
80132;SHT30;69442;51.442;10.564;2023-11-22T13:20:08;3.24;64.11
80132;SHT30;69442;51.442;10.564;2023-11-22T13:22:40;3.27;64.02
80132;SHT30;69442;51.442;10.564;2023-11-22T13:25:08;3.25;66.19
80132;SHT30;69442;51.442;10.564;2023-11-22T13:27:36;3.28;65.16
80132;SHT30;69442;51.442;10.564;2023-11-22T13:30:02;3.24;64.51
80132;SHT30;69442;51.442;10.564;2023-11-22T13:32:27;3.21;63.98
80132;SHT30;69442;51.442;10.564;2023-11-22T13:34:52;3.21;63.97
80132;SHT30;69442;51.442;10.564;2023-11-22T13:37:24;3.27;64.98
80132;SHT30;69442;51.442;10.564;2023-11-22T13:39:49;3.31;65.20
80132;SHT30;69442;51.442;10.564;2023-11-22T13:42:15;3.28;64.49
80132;SHT30;69442;51.442;10.564;2023-11-22T13:44:40;3.24;64.12
80132;SHT30;69442;51.442;10.564;2023-11-22T13:47:06;3.30;65.22
80132;SHT30;69442;51.442;10.564;2023-11-22T13:49:33;3.34;66.18
80132;SHT30;69442;51.442;10.564;2023-11-22T13:51:58;3.30;64.91
80132;SHT30;69442;51.442;10.564;2023-11-22T13:54:24;3.30;67.21
80132;SHT30;69442;51.442;10.564;2023-11-22T13:56:49;3.30;66.48
80132;SHT30;69442;51.442;10.564;2023-11-22T13:59:15;3.30;66.89
80132;SHT30;69442;51.442;10.564;2023-11-22T14:01:40;3.32;66.46
80132;SHT30;69442;51.442;10.564;2023-11-22T14:04:05;3.25;66.71
80132;SHT30;69442;51.442;10.564;2023-11-22T14:06:31;3.23;66.20
80132;SHT30;69442;51.442;10.564;2023-11-22T14:08:56;3.23;65.97
80132;SHT30;69442;51.442;10.564;2023-11-22T14:11:22;3.21;66.60
80132;SHT30;69442;51.442;10.564;2023-11-22T14:13:47;3.24;66.22
80132;SHT30;69442;51.442;10.564;2023-11-22T14:16:13;3.21;65.84
80132;SHT30;69442;51.442;10.564;2023-11-22T14:18:40;3.13;64.62
80132;SHT30;69442;51.442;10.564;2023-11-22T14:21:05;3.14;65.48
80132;SHT30;69442;51.442;10.564;2023-11-22T14:23:31;3.14;66.22
80132;SHT30;69442;51.442;10.564;2023-11-22T14:25:56;3.13;65.90
80132;SHT30;69442;51.442;10.564;2023-11-22T14:28:22;3.11;66.51
80132;SHT30;69442;51.442;10.564;2023-11-22T14:30:48;3.11;66.63
80132;SHT30;69442;51.442;10.564;2023-11-22T14:33:19;3.10;66.75
80132;SHT30;69442;51.442;10.564;2023-11-22T14:35:45;3.06;66.84
80132;SHT30;69442;51.442;10.564;2023-11-22T14:38:10;3.08;69.11
80132;SHT30;69442;51.442;10.564;2023-11-22T14:40:36;2.96;65.29
80132;SHT30;69442;51.442;10.564;2023-11-22T14:43:04;2.97;67.81
80132;SHT30;69442;51.442;10.564;2023-11-22T14:45:29;2.97;67.61
80132;SHT30;69442;51.442;10.564;2023-11-22T14:47:56;3.00;66.18
80132;SHT30;69442;51.442;10.564;2023-11-22T14:50:22;2.97;68.04
80132;SHT30;69442;51.442;10.564;2023-11-22T14:52:51;2.92;65.99
80132;SHT30;69442;51.442;10.564;2023-11-22T14:55:16;2.92;68.31
80132;SHT30;69442;51.442;10.564;2023-11-22T14:57:43;2.95;69.45
80132;SHT30;69442;51.442;10.564;2023-11-22T15:00:09;2.92;67.22
80132;SHT30;69442;51.442;10.564;2023-11-22T15:02:38;2.89;66.49
80132;SHT30;69442;51.442;10.564;2023-11-22T15:05:04;2.86;66.74
80132;SHT30;69442;51.442;10.564;2023-11-22T15:07:34;2.85;66.42
80132;SHT30;69442;51.442;10.564;2023-11-22T15:10:01;2.80;66.67
80132;SHT30;69442;51.442;10.564;2023-11-22T15:12:26;2.80;66.72
80132;SHT30;69442;51.442;10.564;2023-11-22T15:14:56;2.80;67.27
80132;SHT30;69442;51.442;10.564;2023-11-22T15:17:21;2.79;67.52
80132;SHT30;69442;51.442;10.564;2023-11-22T15:19:46;2.73;66.88
80132;SHT30;69442;51.442;10.564;2023-11-22T15:22:12;2.72;67.19
80132;SHT30;69442;51.442;10.564;2023-11-22T15:24:37;2.71;67.88
80132;SHT30;69442;51.442;10.564;2023-11-22T15:27:03;2.72;67.39
80132;SHT30;69442;51.442;10.564;2023-11-22T15:29:28;2.72;66.86
80132;SHT30;69442;51.442;10.564;2023-11-22T15:31:54;2.69;66.76